createdAt,value
2023-03-04T00:02:23.100Z,3.55
2023-03-04T00:04:50.353Z,3.33
2023-03-04T00:07:19.037Z,3.60
2023-03-04T00:09:46.494Z,4.00
2023-03-04T00:12:13.838Z,3.88
2023-03-04T00:14:41.250Z,3.70
2023-03-04T00:17:08.228Z,3.60
2023-03-04T00:19:35.679Z,3.70
2023-03-04T00:22:04.535Z,3.42
2023-03-04T00:24:32.337Z,3.60
2023-03-04T00:26:59.695Z,3.75
2023-03-04T00:29:26.980Z,3.38
2023-03-04T00:31:54.063Z,3.80
2023-03-04T00:34:21.145Z,3.90
2023-03-04T00:36:48.512Z,3.40
2023-03-04T00:39:15.454Z,3.78
2023-03-04T00:41:42.752Z,3.72
2023-03-04T00:44:09.687Z,3.95
2023-03-04T00:46:36.592Z,3.85
2023-03-04T00:49:03.878Z,4.00
2023-03-04T00:51:30.832Z,4.05
2023-03-04T00:53:59.715Z,3.50
2023-03-04T00:56:27.819Z,3.70
2023-03-04T00:58:54.747Z,3.90
2023-03-04T01:01:21.996Z,4.40
2023-03-04T01:03:49.228Z,4.57
2023-03-04T01:06:16.261Z,3.72
2023-03-04T01:08:44.002Z,4.00
2023-03-04T01:11:11.074Z,3.97
2023-03-04T01:13:38.308Z,4.03
2023-03-04T01:16:05.637Z,4.30
2023-03-04T01:18:32.896Z,4.28
2023-03-04T01:21:00.135Z,4.40
2023-03-04T01:23:27.014Z,4.38
2023-03-04T01:25:54.141Z,4.68
2023-03-04T01:28:21.107Z,4.30
2023-03-04T01:30:48.139Z,5.03
2023-03-04T01:33:15.693Z,4.15
2023-03-04T01:35:42.644Z,4.28
2023-03-04T01:38:09.604Z,4.22
2023-03-04T01:40:37.980Z,4.50
2023-03-04T01:43:05.570Z,4.40
2023-03-04T01:45:33.125Z,3.92
2023-03-04T01:48:00.292Z,4.30
2023-03-04T01:50:32.446Z,4.05
2023-03-04T01:53:00.264Z,4.13
2023-03-04T01:55:27.532Z,3.60
2023-03-04T01:57:54.651Z,4.35
2023-03-04T02:00:26.143Z,3.70
2023-03-04T02:02:57.235Z,4.03
2023-03-04T02:05:24.821Z,3.72
2023-03-04T02:07:52.534Z,3.90
2023-03-04T02:10:19.893Z,4.18
2023-03-04T02:12:47.013Z,3.97
2023-03-04T02:15:14.138Z,4.47
2023-03-04T02:17:41.148Z,4.20
2023-03-04T02:20:11.362Z,3.92
2023-03-04T02:22:44.653Z,4.57
2023-03-04T02:25:17.741Z,4.90
2023-03-04T02:27:44.759Z,4.63
2023-03-04T02:30:12.881Z,4.57
2023-03-04T02:32:40.079Z,4.57
2023-03-04T02:35:10.533Z,4.60
2023-03-04T02:37:37.527Z,4.38
2023-03-04T02:40:06.448Z,4.38
2023-03-04T02:42:33.349Z,4.82
2023-03-04T02:45:01.274Z,4.07
2023-03-04T02:47:28.184Z,4.65
2023-03-04T02:49:55.396Z,4.10
2023-03-04T02:52:25.131Z,4.32
2023-03-04T02:54:52.270Z,4.22
2023-03-04T02:57:19.504Z,4.60
2023-03-04T02:59:46.391Z,4.55
2023-03-04T03:02:13.374Z,4.70
2023-03-04T03:04:41.312Z,4.40
2023-03-04T03:07:08.875Z,5.20
2023-03-04T03:09:35.919Z,4.72
2023-03-04T03:12:02.844Z,4.45
2023-03-04T03:14:29.805Z,4.85
2023-03-04T03:16:56.765Z,5.07
2023-03-04T03:19:23.696Z,5.47
2023-03-04T03:21:50.628Z,5.18
2023-03-04T03:24:17.759Z,5.10
2023-03-04T03:26:44.711Z,5.10
2023-03-04T03:29:11.606Z,5.07
2023-03-04T03:31:38.529Z,5.28
2023-03-04T03:34:05.485Z,5.18
2023-03-04T03:36:32.443Z,5.00
2023-03-04T03:38:59.541Z,4.47
2023-03-04T03:41:26.412Z,4.68
2023-03-04T03:43:53.363Z,5.00
2023-03-04T03:46:20.216Z,4.97
2023-03-04T03:48:47.222Z,4.80
2023-03-04T03:51:14.195Z,5.22
2023-03-04T03:53:41.157Z,4.43
2023-03-04T03:56:08.407Z,4.50
2023-03-04T03:58:35.318Z,4.57
2023-03-04T04:01:02.199Z,4.72
2023-03-04T04:03:29.632Z,4.60
2023-03-04T04:05:56.837Z,4.60
2023-03-04T04:08:23.732Z,4.85
2023-03-04T04:10:50.782Z,4.57
2023-03-04T04:13:17.642Z,4.82
2023-03-04T04:15:44.649Z,4.53
2023-03-04T04:18:11.599Z,4.32
2023-03-04T04:20:38.489Z,4.13
2023-03-04T04:23:05.447Z,4.80
2023-03-04T04:25:32.523Z,4.80
2023-03-04T04:27:59.686Z,5.13
2023-03-04T04:30:26.705Z,4.80
2023-03-04T04:32:53.783Z,4.63
2023-03-04T04:35:20.850Z,4.70
2023-03-04T04:37:47.860Z,5.00
2023-03-04T04:40:14.910Z,5.07
2023-03-04T04:42:41.877Z,4.50
2023-03-04T04:45:09.444Z,4.28
2023-03-04T04:47:36.913Z,4.75
2023-03-04T04:50:04.108Z,4.68
2023-03-04T04:52:31.259Z,4.70
2023-03-04T04:54:58.426Z,4.40
2023-03-04T04:57:25.309Z,4.97
2023-03-04T04:59:52.462Z,4.85
2023-03-04T05:02:19.519Z,4.60
2023-03-04T05:04:46.608Z,4.82
2023-03-04T05:07:13.637Z,5.20
2023-03-04T05:09:40.580Z,4.75
2023-03-04T05:12:07.520Z,5.07
2023-03-04T05:14:34.465Z,4.93
2023-03-04T05:17:01.432Z,4.80
2023-03-04T05:19:28.424Z,4.93
2023-03-04T05:21:55.381Z,4.60
2023-03-04T05:24:22.438Z,5.65
2023-03-04T05:26:49.425Z,4.60
2023-03-04T05:29:16.336Z,4.93
2023-03-04T05:31:43.390Z,4.82
2023-03-04T05:34:10.360Z,4.82
2023-03-04T05:36:37.308Z,5.40
2023-03-04T05:39:04.261Z,5.05
2023-03-04T05:41:31.288Z,5.05
2023-03-04T05:43:58.337Z,4.88
2023-03-04T05:46:25.900Z,5.50
2023-03-04T05:48:54.878Z,5.32
2023-03-04T05:51:22.705Z,5.50
2023-03-04T05:53:49.954Z,5.35
2023-03-04T05:56:19.164Z,5.43
2023-03-04T05:58:47.707Z,5.18
2023-03-04T06:01:15.196Z,5.18
2023-03-04T06:03:43.616Z,6.13
2023-03-04T06:06:10.966Z,6.05
2023-03-04T06:08:39.013Z,5.78
2023-03-04T06:11:06.380Z,6.00
2023-03-04T06:13:34.167Z,5.60
2023-03-04T06:16:01.935Z,5.10
2023-03-04T06:18:29.767Z,5.63
2023-03-04T06:21:05.680Z,5.03
2023-03-04T06:23:32.606Z,4.70
2023-03-04T06:26:00.878Z,5.07
2023-03-04T06:28:28.710Z,4.90
2023-03-04T06:30:57.089Z,5.22
2023-03-04T06:33:24.498Z,5.07
2023-03-04T06:35:55.851Z,5.90
2023-03-04T06:38:24.576Z,4.95
2023-03-04T06:40:51.931Z,6.28
2023-03-04T06:43:19.891Z,5.47
2023-03-04T06:45:47.162Z,5.55
2023-03-04T06:48:14.053Z,6.18
2023-03-04T06:50:41.204Z,5.22
2023-03-04T06:53:08.191Z,5.75
2023-03-04T06:55:35.037Z,6.05
2023-03-04T06:58:02.050Z,5.38
2023-03-04T07:00:28.976Z,5.40
2023-03-04T07:02:55.941Z,5.40
2023-03-04T07:05:23.039Z,5.75
2023-03-04T07:07:50.607Z,4.65
2023-03-04T07:10:19.259Z,5.40
2023-03-04T07:12:46.730Z,6.03
2023-03-04T07:15:14.006Z,5.50
2023-03-04T07:17:41.474Z,4.68
2023-03-04T07:20:09.032Z,5.18
2023-03-04T07:22:35.989Z,5.53
2023-03-04T07:25:02.900Z,5.28
2023-03-04T07:27:29.909Z,5.05
2023-03-04T07:29:56.873Z,6.18
2023-03-04T07:32:23.958Z,5.57
2023-03-04T07:34:51.632Z,5.45
2023-03-04T07:37:18.595Z,5.20
2023-03-04T07:39:45.553Z,5.57
2023-03-04T07:42:12.636Z,5.75
2023-03-04T07:44:39.480Z,5.80
2023-03-04T07:47:06.353Z,5.32
2023-03-04T07:49:33.254Z,5.47
2023-03-04T07:52:04.196Z,5.35
2023-03-04T07:54:31.181Z,5.75
2023-03-04T07:56:58.086Z,4.88
2023-03-04T07:59:25.142Z,5.90
2023-03-04T08:01:52.017Z,5.28
2023-03-04T08:04:19.020Z,5.85
2023-03-04T08:06:45.944Z,6.50
2023-03-04T08:09:14.106Z,5.97
2023-03-04T08:11:41.647Z,6.47
2023-03-04T08:14:11.041Z,6.40
2023-03-04T08:16:38.650Z,5.63
2023-03-04T08:19:06.444Z,5.53
2023-03-04T08:21:34.249Z,5.13
2023-03-04T08:24:08.134Z,5.45
2023-03-04T08:26:41.302Z,5.45
2023-03-04T08:29:09.527Z,5.60
2023-03-04T08:31:37.354Z,5.95
2023-03-04T08:34:05.048Z,5.40
2023-03-04T08:36:32.018Z,4.93
2023-03-04T08:38:59.122Z,5.32
2023-03-04T08:41:27.586Z,5.70
2023-03-04T08:43:54.522Z,5.45
2023-03-04T08:46:21.676Z,4.72
2023-03-04T08:48:48.554Z,5.25
2023-03-04T08:51:17.218Z,4.93
2023-03-04T08:53:44.490Z,4.72
2023-03-04T08:56:12.352Z,5.63
2023-03-04T08:58:39.660Z,5.28
2023-03-04T09:01:12.819Z,4.80
2023-03-04T09:03:41.082Z,4.45
2023-03-04T09:06:09.262Z,4.60
2023-03-04T09:08:36.549Z,4.13
2023-03-04T09:11:03.590Z,4.18
2023-03-04T09:13:31.972Z,4.85
2023-03-04T09:16:00.182Z,4.90
2023-03-04T09:18:28.046Z,4.60
2023-03-04T09:20:55.257Z,4.65
2023-03-04T09:23:22.961Z,4.40
2023-03-04T09:25:50.040Z,4.30
2023-03-04T09:28:18.765Z,3.97
2023-03-04T09:30:46.278Z,4.78
2023-03-04T09:33:14.678Z,4.35
2023-03-04T09:35:41.825Z,4.10
2023-03-04T09:38:09.583Z,4.40
2023-03-04T09:40:46.649Z,4.45
2023-03-04T09:43:29.608Z,3.45
2023-03-04T09:46:00.270Z,4.33
2023-03-04T09:48:40.440Z,4.13
2023-03-04T09:51:42.126Z,3.83
2023-03-04T09:54:14.479Z,3.92
2023-03-04T09:56:42.052Z,3.92
2023-03-04T09:59:08.856Z,3.95
2023-03-04T10:01:59.649Z,4.35
2023-03-04T10:04:49.040Z,4.43
2023-03-04T10:07:21.212Z,4.40
2023-03-04T10:09:54.273Z,4.22
2023-03-04T10:12:25.868Z,4.30
2023-03-04T10:14:59.495Z,4.00
2023-03-04T10:17:44.597Z,4.60
2023-03-04T10:20:24.419Z,4.25
2023-03-04T10:22:56.935Z,3.90
2023-03-04T10:25:25.720Z,4.13
2023-03-04T10:27:55.259Z,3.92
2023-03-04T10:30:56.327Z,3.50
2023-03-04T10:33:27.627Z,3.92
2023-03-04T10:36:23.980Z,3.88
2023-03-04T10:38:56.265Z,3.67
2023-03-04T10:41:26.269Z,4.30
2023-03-04T10:44:18.096Z,4.00
2023-03-04T10:46:47.675Z,4.10
2023-03-04T10:49:18.383Z,3.58
2023-03-04T10:52:00.786Z,3.53
2023-03-04T10:54:41.376Z,3.47
2023-03-04T10:57:19.409Z,3.85
2023-03-04T10:59:53.783Z,3.67
2023-03-04T11:02:33.097Z,3.60
2023-03-04T11:05:18.014Z,3.55
2023-03-04T11:07:57.532Z,3.72
2023-03-04T11:10:31.804Z,3.38
2023-03-04T11:13:11.929Z,3.70
2023-03-04T11:16:00.926Z,3.83
2023-03-04T11:18:48.723Z,3.85
2023-03-04T11:21:24.951Z,3.83
2023-03-04T11:24:25.712Z,3.13
2023-03-04T11:26:57.972Z,3.78
2023-03-04T11:29:56.740Z,3.42
2023-03-04T11:32:29.474Z,3.25
2023-03-04T11:35:05.048Z,3.20
2023-03-04T11:37:41.094Z,3.80
2023-03-04T11:40:23.579Z,3.67
2023-03-04T11:43:13.467Z,3.20
2023-03-04T11:46:02.748Z,3.90
2023-03-04T11:48:47.457Z,3.47
2023-03-04T11:51:40.465Z,3.10
2023-03-04T11:54:38.283Z,3.38
2023-03-04T11:57:13.286Z,3.45
2023-03-04T11:59:54.963Z,3.67
2023-03-04T12:02:46.100Z,3.47
2023-03-04T12:05:12.912Z,3.53
2023-03-04T12:07:42.375Z,3.38
2023-03-04T12:10:40.297Z,3.50
2023-03-04T12:13:39.533Z,3.45
2023-03-04T12:16:09.699Z,3.60
2023-03-04T12:18:55.827Z,3.75
2023-03-04T12:21:22.792Z,3.72
2023-03-04T12:24:04.531Z,3.72
2023-03-04T12:27:04.081Z,3.67
2023-03-04T12:29:58.153Z,3.60
2023-03-04T12:32:34.701Z,3.28
2023-03-04T12:35:21.909Z,3.60
2023-03-04T12:38:17.188Z,3.65
2023-03-04T12:40:49.660Z,3.88
2023-03-04T12:43:45.028Z,3.38
2023-03-04T12:46:23.995Z,4.30
2023-03-04T12:49:17.164Z,3.50
2023-03-04T12:52:19.283Z,3.55
2023-03-04T12:54:49.582Z,3.95
2023-03-04T12:57:23.857Z,3.85
2023-03-04T13:00:16.040Z,3.60
2023-03-04T13:03:08.028Z,3.80
2023-03-04T13:05:53.729Z,3.53
2023-03-04T13:08:33.149Z,3.80
2023-03-04T13:11:22.606Z,3.78
2023-03-04T13:14:17.429Z,3.15
2023-03-04T13:16:45.247Z,3.80
2023-03-04T13:19:45.242Z,3.35
2023-03-04T13:22:39.888Z,3.63
2023-03-04T13:25:28.690Z,4.40
2023-03-04T13:28:10.997Z,3.50
2023-03-04T13:30:40.905Z,4.20
2023-03-04T13:33:16.461Z,3.70
2023-03-04T13:35:49.398Z,3.88
2023-03-04T13:38:35.028Z,3.60
2023-03-04T13:41:20.055Z,3.70
2023-03-04T13:43:49.229Z,3.60
2023-03-04T13:46:23.984Z,3.38
2023-03-04T13:48:51.182Z,3.67
2023-03-04T13:51:32.921Z,3.58
2023-03-04T13:53:59.813Z,3.53
2023-03-04T13:56:37.465Z,3.85
2023-03-04T13:59:07.524Z,3.67
2023-03-04T14:01:55.684Z,3.78
2023-03-04T14:04:37.167Z,3.78
2023-03-04T14:07:23.215Z,4.10
2023-03-04T14:10:12.609Z,3.58
2023-03-04T14:12:49.274Z,4.45
2023-03-04T14:15:16.150Z,4.30
2023-03-04T14:17:49.591Z,3.95
2023-03-04T14:22:56.890Z,4.25
2023-03-04T14:25:25.401Z,3.90
2023-03-04T14:28:08.865Z,4.10
2023-03-04T14:33:16.414Z,4.10
2023-03-04T14:35:51.857Z,3.80
2023-03-04T14:38:35.031Z,4.07
2023-03-04T14:41:07.310Z,4.00
2023-03-04T14:43:45.337Z,4.50
2023-03-04T14:46:16.069Z,4.32
2023-03-04T14:48:50.530Z,3.70
2023-03-04T14:51:37.683Z,4.47
2023-03-04T14:54:05.253Z,4.28
2023-03-04T14:56:34.892Z,4.30
2023-03-04T14:59:01.823Z,4.45
2023-03-04T15:01:35.252Z,4.15
2023-03-04T15:04:11.467Z,4.28
2023-03-04T15:06:48.491Z,4.30
2023-03-04T15:09:22.671Z,4.22
2023-03-04T15:12:06.749Z,4.18
2023-03-04T15:17:26.325Z,5.20
2023-03-04T15:20:10.950Z,4.85
2023-03-04T15:22:58.861Z,4.80
2023-03-04T15:25:25.896Z,4.82
2023-03-04T15:27:54.248Z,5.00
2023-03-04T15:30:24.121Z,5.00
2023-03-04T15:32:51.739Z,4.60
2023-03-04T15:35:19.840Z,5.00
2023-03-04T15:37:49.656Z,4.95
2023-03-04T15:40:28.200Z,5.35
2023-03-04T15:42:57.982Z,5.05
2023-03-04T15:45:36.374Z,4.65
2023-03-04T15:48:07.914Z,4.68
2023-03-04T15:50:38.375Z,4.55
2023-03-04T15:53:08.961Z,4.97
2023-03-04T15:55:36.235Z,4.88
2023-03-04T15:58:04.776Z,5.20
2023-03-04T16:00:32.271Z,5.20
2023-03-04T16:02:59.192Z,4.43
2023-03-04T16:05:26.319Z,5.10
2023-03-04T16:07:53.258Z,4.50
2023-03-04T16:10:27.478Z,5.25
2023-03-04T16:12:55.020Z,5.68
2023-03-04T16:15:24.789Z,5.60
2023-03-04T16:17:52.287Z,4.95
2023-03-04T16:20:22.441Z,5.20
2023-03-04T16:22:54.237Z,5.53
2023-03-04T16:25:22.462Z,5.35
2023-03-04T16:27:52.186Z,5.45
2023-03-04T16:30:21.746Z,5.20
2023-03-04T16:32:48.729Z,5.05
2023-03-04T16:35:17.742Z,5.05
2023-03-04T16:37:45.683Z,5.07
2023-03-04T16:40:18.521Z,5.28
2023-03-04T16:42:45.500Z,5.35
2023-03-04T16:45:31.743Z,5.18
2023-03-04T16:47:58.678Z,5.13
2023-03-04T16:50:29.158Z,5.35
2023-03-04T16:52:56.753Z,4.85
2023-03-04T16:55:27.262Z,5.20
2023-03-04T16:57:55.714Z,5.47
2023-03-04T17:00:24.270Z,5.00
2023-03-04T17:03:00.223Z,5.03
2023-03-04T17:05:30.683Z,5.05
2023-03-04T17:07:57.884Z,5.60
2023-03-04T17:10:25.361Z,5.20
2023-03-04T17:12:52.886Z,4.95
2023-03-04T17:15:19.925Z,4.72
2023-03-04T17:17:47.300Z,5.40
2023-03-04T17:20:17.369Z,4.95
2023-03-04T17:22:44.620Z,5.28
2023-03-04T17:25:13.117Z,5.13
2023-03-04T17:27:40.368Z,5.07
2023-03-04T17:30:11.098Z,5.38
2023-03-04T17:32:39.599Z,5.35
2023-03-04T17:35:08.295Z,4.95
2023-03-04T17:37:35.617Z,4.63
2023-03-04T17:40:08.756Z,5.00
2023-03-04T17:42:35.737Z,4.40
2023-03-04T17:45:02.724Z,5.25
2023-03-04T17:47:29.836Z,5.57
2023-03-04T17:49:56.724Z,4.70
2023-03-04T17:52:23.679Z,4.82
2023-03-04T17:54:50.848Z,4.80
2023-03-04T17:57:18.981Z,5.57
2023-03-04T17:59:45.981Z,5.32
2023-03-04T18:02:16.210Z,5.70
2023-03-04T18:04:48.416Z,6.05
2023-03-04T18:07:15.262Z,5.68
2023-03-04T18:09:43.357Z,5.38
2023-03-04T18:12:10.647Z,4.90
2023-03-04T18:14:37.562Z,5.38
2023-03-04T18:17:04.512Z,5.00
2023-03-04T18:19:31.570Z,5.88
2023-03-04T18:21:58.579Z,5.40
2023-03-04T18:24:25.521Z,6.00
2023-03-04T18:26:52.474Z,5.80
2023-03-04T18:29:19.366Z,6.20
2023-03-04T18:31:46.316Z,5.32
2023-03-04T18:34:13.274Z,5.90
2023-03-04T18:36:41.307Z,5.82
2023-03-04T18:39:09.440Z,5.88
2023-03-04T18:41:36.413Z,6.55
2023-03-04T18:44:03.380Z,6.00
2023-03-04T18:46:47.454Z,5.72
2023-03-04T18:49:15.643Z,5.70
2023-03-04T18:51:42.722Z,6.22
2023-03-04T18:54:10.643Z,6.30
2023-03-04T18:57:01.990Z,6.38
2023-03-04T18:59:38.655Z,5.93
2023-03-04T19:02:17.061Z,6.70
2023-03-04T19:04:44.048Z,6.35
2023-03-04T19:07:10.943Z,6.07
2023-03-04T19:09:37.855Z,6.25
2023-03-04T19:12:06.604Z,7.10
2023-03-04T19:14:33.598Z,6.93
2023-03-04T19:17:00.525Z,6.38
2023-03-04T19:19:27.449Z,6.55
2023-03-04T19:21:54.481Z,5.88
2023-03-04T19:24:21.600Z,6.40
2023-03-04T19:26:48.495Z,5.90
2023-03-04T19:29:16.162Z,6.22
2023-03-04T19:31:43.200Z,6.13
2023-03-04T19:34:10.402Z,5.88
2023-03-04T19:36:37.996Z,6.15
2023-03-04T19:39:05.242Z,6.10
2023-03-04T19:41:32.206Z,6.80
2023-03-04T19:43:59.139Z,6.75
2023-03-04T19:46:27.612Z,6.25
2023-03-04T19:48:54.550Z,6.72
2023-03-04T19:51:23.762Z,6.78
2023-03-04T19:53:50.924Z,6.72
2023-03-04T19:56:19.349Z,6.10
2023-03-04T19:58:49.782Z,6.68
2023-03-04T20:01:38.782Z,6.63
2023-03-04T20:04:11.781Z,6.05
2023-03-04T20:06:44.214Z,5.50
2023-03-04T20:09:12.664Z,5.68
2023-03-04T20:11:54.930Z,5.63
2023-03-04T20:14:24.973Z,6.15
2023-03-04T20:16:52.010Z,5.65
2023-03-04T20:19:18.879Z,5.82
2023-03-04T20:21:45.788Z,5.90
2023-03-04T20:24:13.249Z,5.47
2023-03-04T20:26:40.230Z,6.30
2023-03-04T20:29:07.211Z,6.32
2023-03-04T20:31:38.813Z,5.50
2023-03-04T20:34:06.622Z,6.07
2023-03-04T20:36:34.593Z,5.97
2023-03-04T20:39:03.501Z,6.43
2023-03-04T20:41:33.323Z,6.07
2023-03-04T20:44:00.453Z,6.40
2023-03-04T20:46:41.323Z,6.50
2023-03-04T20:49:23.534Z,6.53
2023-03-04T20:51:56.176Z,6.55
2023-03-04T20:54:23.553Z,6.28
2023-03-04T20:56:50.542Z,6.03
2023-03-04T20:59:18.402Z,5.50
2023-03-04T21:01:48.080Z,6.20
2023-03-04T21:04:15.196Z,6.55
2023-03-04T21:06:42.547Z,6.55
2023-03-04T21:09:14.223Z,6.38
2023-03-04T21:11:42.181Z,6.68
2023-03-04T21:14:22.193Z,6.57
2023-03-04T21:16:51.275Z,6.07
2023-03-04T21:19:40.152Z,6.22
2023-03-04T21:22:07.066Z,5.78
2023-03-04T21:24:36.246Z,6.00
2023-03-04T21:27:04.708Z,10.30
2023-03-04T21:29:31.639Z,10.98
2023-03-04T21:32:23.438Z,9.30
2023-03-04T21:34:52.623Z,8.55
2023-03-04T21:37:24.089Z,8.40
2023-03-04T21:39:51.073Z,7.35
2023-03-04T21:42:18.168Z,7.47
2023-03-04T21:44:50.065Z,7.28
2023-03-04T21:47:17.652Z,7.70
2023-03-04T21:49:44.595Z,6.85
2023-03-04T21:52:11.603Z,6.75
2023-03-04T21:54:38.517Z,7.32
2023-03-04T21:57:05.537Z,7.05
2023-03-04T21:59:32.409Z,7.13
2023-03-04T22:01:59.414Z,7.95
2023-03-04T22:04:27.358Z,6.75
2023-03-04T22:06:54.277Z,6.70
2023-03-04T22:09:21.313Z,8.02
2023-03-04T22:11:48.344Z,7.60
2023-03-04T22:14:15.297Z,7.43
2023-03-04T22:16:55.373Z,7.22
2023-03-04T22:19:24.698Z,7.05
2023-03-04T22:21:52.308Z,7.40
2023-03-04T22:24:19.342Z,7.50
2023-03-04T22:26:46.701Z,7.65
2023-03-04T22:29:13.644Z,7.13
2023-03-04T22:31:40.746Z,7.35
2023-03-04T22:34:10.675Z,9.43
2023-03-04T22:36:40.455Z,9.70
2023-03-04T22:39:10.030Z,8.93
2023-03-04T22:41:37.283Z,8.55
2023-03-04T22:44:06.191Z,8.23
2023-03-04T22:46:35.105Z,8.02
2023-03-04T22:49:08.823Z,8.32
2023-03-04T22:51:36.193Z,7.95
2023-03-04T22:54:03.177Z,7.72
2023-03-04T22:56:30.130Z,7.22
2023-03-04T22:58:57.060Z,8.00
2023-03-04T23:01:24.082Z,7.40
2023-03-04T23:03:51.154Z,7.60
2023-03-04T23:06:25.257Z,8.30
2023-03-04T23:08:53.869Z,7.25
2023-03-04T23:11:25.618Z,7.05
2023-03-04T23:13:53.239Z,7.05
2023-03-04T23:16:21.134Z,7.68
2023-03-04T23:18:49.101Z,7.40
2023-03-04T23:21:21.761Z,7.25
2023-03-04T23:23:49.263Z,6.85
2023-03-04T23:26:25.376Z,7.32
2023-03-04T23:28:55.747Z,7.68
2023-03-04T23:31:23.212Z,8.52
2023-03-04T23:33:50.262Z,8.95
2023-03-04T23:36:18.939Z,8.68
2023-03-04T23:38:48.535Z,9.05
2023-03-04T23:41:18.544Z,8.43
2023-03-04T23:43:45.970Z,8.57
2023-03-04T23:46:13.010Z,9.05
2023-03-04T23:48:43.310Z,8.20
2023-03-04T23:51:10.759Z,8.85
2023-03-04T23:53:39.164Z,8.30
2023-03-04T23:56:10.752Z,8.13
2023-03-04T23:58:37.739Z,8.73
